Aviation Digital Data Service (ADDS)

Output produced by METARs form (1926 UTC 18 April 2019)
found at http://www.aviationweather.gov/metar/data/
 
Forecast for: ZSQD (QINGDAO/TSINGTAO, CN)
Text: TAF ZSQD 181509Z 1818/1918 06004MPS 5000 HZ NSC TX21/1906Z TN10/1821Z
Forecast period: 1800 UTC 18 April 2019 to 0400 UTC 19 April 2019
Forecast type: FROM: standard forecast or significant change
Winds: from the ENE (60 degrees) at 9 MPH (8 knots; 4.1 m/s)
Visibility: 3 miles (5 km)
Ceiling: unknown
Clouds: missing
Weather: HZ  (haze)
Text: BECMG 1904/1905 16005MPS
Forecast period: 0400 to 1800 UTC 19 April 2019
Forecast type: BECOMING: Conditions expected to become as follows by 0500 UTC 19 April 2019
Winds: from the SSE (160 degrees) at 12 MPH (10 knots; 5.1 m/s)
Visibility: 3 miles (5 km)
Ceiling: unknown
Clouds: missing
Weather: HZ  (haze)